sensor_id;sensor_type;location;lat;lon;timestamp;temperature;humidity
6270;DHT22;3168;51.684;6.954;2023-09-07T00:02:18;18.30;1.00
6270;DHT22;3168;51.684;6.954;2023-09-07T00:04:44;18.30;1.00
6270;DHT22;3168;51.684;6.954;2023-09-07T00:07:10;18.20;1.00
6270;DHT22;3168;51.684;6.954;2023-09-07T00:09:37;18.20;1.00
6270;DHT22;3168;51.684;6.954;2023-09-07T00:12:03;18.20;1.00
6270;DHT22;3168;51.684;6.954;2023-09-07T00:14:30;18.10;1.00
6270;DHT22;3168;51.684;6.954;2023-09-07T00:16:56;18.10;1.00
6270;DHT22;3168;51.684;6.954;2023-09-07T00:19:22;18.10;1.00
6270;DHT22;3168;51.684;6.954;2023-09-07T00:21:48;18.10;1.00
6270;DHT22;3168;51.684;6.954;2023-09-07T00:24:14;18.10;1.00
6270;DHT22;3168;51.684;6.954;2023-09-07T00:26:40;18.10;1.00
6270;DHT22;3168;51.684;6.954;2023-09-07T00:29:07;18.10;1.00
6270;DHT22;3168;51.684;6.954;2023-09-07T00:31:33;18.10;1.00
6270;DHT22;3168;51.684;6.954;2023-09-07T00:33:59;18.00;1.00
6270;DHT22;3168;51.684;6.954;2023-09-07T00:36:24;18.00;1.00
6270;DHT22;3168;51.684;6.954;2023-09-07T00:38:50;18.00;1.00
6270;DHT22;3168;51.684;6.954;2023-09-07T00:41:16;18.00;1.00
6270;DHT22;3168;51.684;6.954;2023-09-07T00:43:42;18.00;1.00
6270;DHT22;3168;51.684;6.954;2023-09-07T00:46:08;17.90;1.00
6270;DHT22;3168;51.684;6.954;2023-09-07T00:48:34;17.90;1.00
6270;DHT22;3168;51.684;6.954;2023-09-07T00:50:59;17.90;1.00
6270;DHT22;3168;51.684;6.954;2023-09-07T00:53:26;17.90;1.00
6270;DHT22;3168;51.684;6.954;2023-09-07T00:55:51;17.90;1.00
6270;DHT22;3168;51.684;6.954;2023-09-07T00:58:17;17.90;1.00
6270;DHT22;3168;51.684;6.954;2023-09-07T01:00:43;17.90;1.00
6270;DHT22;3168;51.684;6.954;2023-09-07T01:03:09;17.90;1.00
6270;DHT22;3168;51.684;6.954;2023-09-07T01:05:43;17.90;1.00
6270;DHT22;3168;51.684;6.954;2023-09-07T01:08:12;17.80;1.00
6270;DHT22;3168;51.684;6.954;2023-09-07T01:10:33;17.80;1.00
6270;DHT22;3168;51.684;6.954;2023-09-07T01:13:00;17.70;1.00
6270;DHT22;3168;51.684;6.954;2023-09-07T01:15:26;17.70;1.00
6270;DHT22;3168;51.684;6.954;2023-09-07T01:17:52;17.70;1.00
6270;DHT22;3168;51.684;6.954;2023-09-07T01:20:17;17.70;1.00
6270;DHT22;3168;51.684;6.954;2023-09-07T01:22:43;17.70;1.00
6270;DHT22;3168;51.684;6.954;2023-09-07T01:25:09;17.70;1.00
6270;DHT22;3168;51.684;6.954;2023-09-07T01:27:35;17.70;1.00
6270;DHT22;3168;51.684;6.954;2023-09-07T01:30:01;17.60;1.00
6270;DHT22;3168;51.684;6.954;2023-09-07T01:32:26;17.70;1.00
6270;DHT22;3168;51.684;6.954;2023-09-07T01:34:54;17.60;1.00
6270;DHT22;3168;51.684;6.954;2023-09-07T01:37:19;17.60;1.00
6270;DHT22;3168;51.684;6.954;2023-09-07T01:39:44;17.50;1.00
6270;DHT22;3168;51.684;6.954;2023-09-07T01:42:10;17.40;1.00
6270;DHT22;3168;51.684;6.954;2023-09-07T01:44:37;17.40;1.00
6270;DHT22;3168;51.684;6.954;2023-09-07T01:47:03;17.40;1.00
6270;DHT22;3168;51.684;6.954;2023-09-07T01:49:29;17.40;1.00
6270;DHT22;3168;51.684;6.954;2023-09-07T01:51:55;17.40;1.00
6270;DHT22;3168;51.684;6.954;2023-09-07T01:54:21;17.40;1.00
6270;DHT22;3168;51.684;6.954;2023-09-07T01:56:46;17.40;1.00
6270;DHT22;3168;51.684;6.954;2023-09-07T01:59:12;17.40;1.00
6270;DHT22;3168;51.684;6.954;2023-09-07T02:01:38;17.40;1.00
6270;DHT22;3168;51.684;6.954;2023-09-07T02:04:04;17.30;1.00
6270;DHT22;3168;51.684;6.954;2023-09-07T02:06:30;17.30;1.00
6270;DHT22;3168;51.684;6.954;2023-09-07T02:08:56;17.30;1.00
6270;DHT22;3168;51.684;6.954;2023-09-07T02:11:23;17.20;1.00
6270;DHT22;3168;51.684;6.954;2023-09-07T02:13:49;17.20;1.00
6270;DHT22;3168;51.684;6.954;2023-09-07T02:16:15;17.20;1.00
6270;DHT22;3168;51.684;6.954;2023-09-07T02:18:41;17.20;1.00
6270;DHT22;3168;51.684;6.954;2023-09-07T02:21:06;17.20;1.00
6270;DHT22;3168;51.684;6.954;2023-09-07T02:23:32;17.10;1.00
6270;DHT22;3168;51.684;6.954;2023-09-07T02:25:58;17.10;1.00
6270;DHT22;3168;51.684;6.954;2023-09-07T02:28:24;17.10;1.00
6270;DHT22;3168;51.684;6.954;2023-09-07T02:30:50;17.10;1.00
6270;DHT22;3168;51.684;6.954;2023-09-07T02:33:15;17.10;1.00
6270;DHT22;3168;51.684;6.954;2023-09-07T02:35:42;17.10;1.00
6270;DHT22;3168;51.684;6.954;2023-09-07T02:38:07;17.10;1.00
6270;DHT22;3168;51.684;6.954;2023-09-07T02:40:39;17.20;1.00
6270;DHT22;3168;51.684;6.954;2023-09-07T02:42:59;17.20;1.00
6270;DHT22;3168;51.684;6.954;2023-09-07T02:45:25;17.10;1.00
6270;DHT22;3168;51.684;6.954;2023-09-07T02:47:51;17.10;1.00
6270;DHT22;3168;51.684;6.954;2023-09-07T02:50:18;17.00;1.00
6270;DHT22;3168;51.684;6.954;2023-09-07T02:52:44;17.00;1.00
6270;DHT22;3168;51.684;6.954;2023-09-07T02:55:09;17.00;1.00
6270;DHT22;3168;51.684;6.954;2023-09-07T02:57:35;17.00;1.00
6270;DHT22;3168;51.684;6.954;2023-09-07T03:00:01;16.90;1.00
6270;DHT22;3168;51.684;6.954;2023-09-07T03:02:27;16.90;1.00
6270;DHT22;3168;51.684;6.954;2023-09-07T03:04:54;16.90;1.00
6270;DHT22;3168;51.684;6.954;2023-09-07T03:07:19;16.90;1.00
6270;DHT22;3168;51.684;6.954;2023-09-07T03:09:45;16.90;1.00
6270;DHT22;3168;51.684;6.954;2023-09-07T03:12:11;16.90;1.00
6270;DHT22;3168;51.684;6.954;2023-09-07T03:14:36;16.90;1.00
6270;DHT22;3168;51.684;6.954;2023-09-07T03:17:02;16.90;1.00
6270;DHT22;3168;51.684;6.954;2023-09-07T03:19:28;16.90;1.00
6270;DHT22;3168;51.684;6.954;2023-09-07T03:21:54;16.80;1.00
6270;DHT22;3168;51.684;6.954;2023-09-07T03:24:20;16.80;1.00
6270;DHT22;3168;51.684;6.954;2023-09-07T03:26:45;16.90;1.00
6270;DHT22;3168;51.684;6.954;2023-09-07T03:29:11;16.90;1.00
6270;DHT22;3168;51.684;6.954;2023-09-07T03:31:37;16.80;1.00
6270;DHT22;3168;51.684;6.954;2023-09-07T03:34:03;16.90;1.00
6270;DHT22;3168;51.684;6.954;2023-09-07T03:36:29;16.70;1.00
6270;DHT22;3168;51.684;6.954;2023-09-07T03:38:55;16.80;1.00
6270;DHT22;3168;51.684;6.954;2023-09-07T03:41:20;16.80;1.00
6270;DHT22;3168;51.684;6.954;2023-09-07T03:43:46;16.70;1.00
6270;DHT22;3168;51.684;6.954;2023-09-07T03:46:12;16.70;1.00
6270;DHT22;3168;51.684;6.954;2023-09-07T03:48:38;16.70;1.00
6270;DHT22;3168;51.684;6.954;2023-09-07T03:51:05;16.70;1.00
6270;DHT22;3168;51.684;6.954;2023-09-07T03:53:30;16.80;1.00
6270;DHT22;3168;51.684;6.954;2023-09-07T03:55:56;16.80;1.00
6270;DHT22;3168;51.684;6.954;2023-09-07T03:58:22;16.80;1.00
6270;DHT22;3168;51.684;6.954;2023-09-07T04:00:47;16.70;1.00
6270;DHT22;3168;51.684;6.954;2023-09-07T04:03:13;16.60;1.00
6270;DHT22;3168;51.684;6.954;2023-09-07T04:05:39;16.60;1.00
6270;DHT22;3168;51.684;6.954;2023-09-07T04:08:05;16.60;1.00
6270;DHT22;3168;51.684;6.954;2023-09-07T04:10:31;16.50;1.00
6270;DHT22;3168;51.684;6.954;2023-09-07T04:12:57;16.40;1.00
6270;DHT22;3168;51.684;6.954;2023-09-07T04:15:22;16.40;1.00
6270;DHT22;3168;51.684;6.954;2023-09-07T04:17:49;16.40;1.00
6270;DHT22;3168;51.684;6.954;2023-09-07T04:20:14;16.40;1.00
6270;DHT22;3168;51.684;6.954;2023-09-07T04:22:40;16.40;1.00
6270;DHT22;3168;51.684;6.954;2023-09-07T04:25:06;16.40;1.00
6270;DHT22;3168;51.684;6.954;2023-09-07T04:27:32;16.40;1.00
6270;DHT22;3168;51.684;6.954;2023-09-07T04:29:58;16.40;1.00
6270;DHT22;3168;51.684;6.954;2023-09-07T04:32:23;16.50;1.00
6270;DHT22;3168;51.684;6.954;2023-09-07T04:34:54;16.60;1.00
6270;DHT22;3168;51.684;6.954;2023-09-07T04:37:19;16.60;1.00
6270;DHT22;3168;51.684;6.954;2023-09-07T04:39:45;16.50;1.00
6270;DHT22;3168;51.684;6.954;2023-09-07T04:42:10;16.40;1.00
6270;DHT22;3168;51.684;6.954;2023-09-07T04:44:37;16.40;1.00
6270;DHT22;3168;51.684;6.954;2023-09-07T04:47:03;16.40;1.00
6270;DHT22;3168;51.684;6.954;2023-09-07T04:49:29;16.40;1.00
6270;DHT22;3168;51.684;6.954;2023-09-07T04:51:55;16.30;1.00
6270;DHT22;3168;51.684;6.954;2023-09-07T04:54:21;16.30;1.00
6270;DHT22;3168;51.684;6.954;2023-09-07T04:56:47;16.30;1.00
6270;DHT22;3168;51.684;6.954;2023-09-07T04:59:12;16.20;1.00
6270;DHT22;3168;51.684;6.954;2023-09-07T05:01:38;16.30;1.00
6270;DHT22;3168;51.684;6.954;2023-09-07T05:04:04;16.40;1.00
6270;DHT22;3168;51.684;6.954;2023-09-07T05:06:30;16.40;1.00
6270;DHT22;3168;51.684;6.954;2023-09-07T05:08:56;16.30;1.00
6270;DHT22;3168;51.684;6.954;2023-09-07T05:11:22;16.30;1.00
6270;DHT22;3168;51.684;6.954;2023-09-07T05:13:47;16.30;1.00
6270;DHT22;3168;51.684;6.954;2023-09-07T05:16:13;16.30;1.00
6270;DHT22;3168;51.684;6.954;2023-09-07T05:18:40;16.30;1.00
6270;DHT22;3168;51.684;6.954;2023-09-07T05:21:12;16.20;1.00
6270;DHT22;3168;51.684;6.954;2023-09-07T05:23:38;16.30;1.00
6270;DHT22;3168;51.684;6.954;2023-09-07T05:26:04;16.50;1.00
6270;DHT22;3168;51.684;6.954;2023-09-07T05:28:30;16.50;1.00
6270;DHT22;3168;51.684;6.954;2023-09-07T05:30:56;16.50;1.00
6270;DHT22;3168;51.684;6.954;2023-09-07T05:33:22;16.50;1.00
6270;DHT22;3168;51.684;6.954;2023-09-07T05:35:47;16.50;1.00
6270;DHT22;3168;51.684;6.954;2023-09-07T05:38:13;16.50;1.00
6270;DHT22;3168;51.684;6.954;2023-09-07T05:40:40;16.50;1.00
6270;DHT22;3168;51.684;6.954;2023-09-07T05:43:05;16.50;1.00
6270;DHT22;3168;51.684;6.954;2023-09-07T05:45:31;16.60;1.00
6270;DHT22;3168;51.684;6.954;2023-09-07T05:47:58;16.60;1.00
6270;DHT22;3168;51.684;6.954;2023-09-07T05:50:24;16.60;1.00
6270;DHT22;3168;51.684;6.954;2023-09-07T05:52:50;16.60;1.00
6270;DHT22;3168;51.684;6.954;2023-09-07T05:55:16;16.70;1.00
6270;DHT22;3168;51.684;6.954;2023-09-07T05:57:41;16.80;1.00
6270;DHT22;3168;51.684;6.954;2023-09-07T06:00:08;16.80;1.00
6270;DHT22;3168;51.684;6.954;2023-09-07T06:02:34;16.80;1.00
6270;DHT22;3168;51.684;6.954;2023-09-07T06:05:00;16.90;1.00
6270;DHT22;3168;51.684;6.954;2023-09-07T06:07:27;17.10;1.00
6270;DHT22;3168;51.684;6.954;2023-09-07T06:09:52;17.10;1.00
6270;DHT22;3168;51.684;6.954;2023-09-07T06:12:19;17.20;1.00
6270;DHT22;3168;51.684;6.954;2023-09-07T06:14:45;17.20;1.00
6270;DHT22;3168;51.684;6.954;2023-09-07T06:17:11;17.30;1.00
6270;DHT22;3168;51.684;6.954;2023-09-07T06:19:37;17.50;1.00
6270;DHT22;3168;51.684;6.954;2023-09-07T06:22:03;17.50;1.00
6270;DHT22;3168;51.684;6.954;2023-09-07T06:24:29;17.60;1.00
6270;DHT22;3168;51.684;6.954;2023-09-07T06:26:55;17.80;1.00
6270;DHT22;3168;51.684;6.954;2023-09-07T06:29:21;17.80;1.00
6270;DHT22;3168;51.684;6.954;2023-09-07T06:31:46;17.90;1.00
6270;DHT22;3168;51.684;6.954;2023-09-07T06:34:12;17.90;1.00
6270;DHT22;3168;51.684;6.954;2023-09-07T06:36:38;18.10;1.00
6270;DHT22;3168;51.684;6.954;2023-09-07T06:39:04;18.10;1.00
6270;DHT22;3168;51.684;6.954;2023-09-07T06:41:30;18.20;1.00
6270;DHT22;3168;51.684;6.954;2023-09-07T06:43:55;18.30;1.00
6270;DHT22;3168;51.684;6.954;2023-09-07T06:46:21;18.40;1.00
6270;DHT22;3168;51.684;6.954;2023-09-07T06:48:47;18.40;1.00
6270;DHT22;3168;51.684;6.954;2023-09-07T06:51:13;18.40;1.00
6270;DHT22;3168;51.684;6.954;2023-09-07T06:53:38;18.50;1.00
6270;DHT22;3168;51.684;6.954;2023-09-07T06:56:04;18.70;1.00
6270;DHT22;3168;51.684;6.954;2023-09-07T06:58:30;18.80;1.00
6270;DHT22;3168;51.684;6.954;2023-09-07T07:00:57;19.00;1.00
6270;DHT22;3168;51.684;6.954;2023-09-07T07:03:26;19.00;1.00
6270;DHT22;3168;51.684;6.954;2023-09-07T07:05:52;19.10;1.00
6270;DHT22;3168;51.684;6.954;2023-09-07T07:08:18;19.30;1.00
6270;DHT22;3168;51.684;6.954;2023-09-07T07:10:43;19.40;1.00
6270;DHT22;3168;51.684;6.954;2023-09-07T07:13:09;19.50;1.00
6270;DHT22;3168;51.684;6.954;2023-09-07T07:15:35;19.70;1.00
6270;DHT22;3168;51.684;6.954;2023-09-07T07:18:01;19.70;1.00
6270;DHT22;3168;51.684;6.954;2023-09-07T07:20:27;19.90;1.00
6270;DHT22;3168;51.684;6.954;2023-09-07T07:22:52;19.90;1.00
6270;DHT22;3168;51.684;6.954;2023-09-07T07:25:18;20.00;1.00
6270;DHT22;3168;51.684;6.954;2023-09-07T07:27:44;20.10;1.00
6270;DHT22;3168;51.684;6.954;2023-09-07T07:30:10;20.20;1.00
6270;DHT22;3168;51.684;6.954;2023-09-07T07:32:36;20.30;1.00
6270;DHT22;3168;51.684;6.954;2023-09-07T07:35:02;20.40;1.00
6270;DHT22;3168;51.684;6.954;2023-09-07T07:37:28;20.60;1.00
6270;DHT22;3168;51.684;6.954;2023-09-07T07:39:53;20.70;1.00
6270;DHT22;3168;51.684;6.954;2023-09-07T07:42:19;20.90;1.00
6270;DHT22;3168;51.684;6.954;2023-09-07T07:44:45;20.90;1.00
6270;DHT22;3168;51.684;6.954;2023-09-07T07:47:11;21.10;1.00
6270;DHT22;3168;51.684;6.954;2023-09-07T07:49:36;21.10;1.00
6270;DHT22;3168;51.684;6.954;2023-09-07T07:52:03;21.20;1.00
6270;DHT22;3168;51.684;6.954;2023-09-07T07:54:28;21.30;1.00
6270;DHT22;3168;51.684;6.954;2023-09-07T07:56:55;21.60;1.00
6270;DHT22;3168;51.684;6.954;2023-09-07T07:59:22;21.60;1.00
6270;DHT22;3168;51.684;6.954;2023-09-07T08:01:48;21.60;1.00
6270;DHT22;3168;51.684;6.954;2023-09-07T08:04:13;21.60;1.00
6270;DHT22;3168;51.684;6.954;2023-09-07T08:06:39;21.60;1.00
6270;DHT22;3168;51.684;6.954;2023-09-07T08:09:06;21.80;1.00
6270;DHT22;3168;51.684;6.954;2023-09-07T08:11:31;21.80;1.00
6270;DHT22;3168;51.684;6.954;2023-09-07T08:13:57;22.00;1.00
6270;DHT22;3168;51.684;6.954;2023-09-07T08:16:23;22.00;1.00
6270;DHT22;3168;51.684;6.954;2023-09-07T08:18:49;22.10;1.00
6270;DHT22;3168;51.684;6.954;2023-09-07T08:21:15;22.30;1.00
6270;DHT22;3168;51.684;6.954;2023-09-07T08:23:41;22.30;1.00
6270;DHT22;3168;51.684;6.954;2023-09-07T08:26:07;22.30;1.00
6270;DHT22;3168;51.684;6.954;2023-09-07T08:28:33;22.40;1.00
6270;DHT22;3168;51.684;6.954;2023-09-07T08:30:59;22.40;1.00
6270;DHT22;3168;51.684;6.954;2023-09-07T08:33:24;22.40;1.00
6270;DHT22;3168;51.684;6.954;2023-09-07T08:35:55;22.50;1.00
6270;DHT22;3168;51.684;6.954;2023-09-07T08:38:20;22.50;1.00
6270;DHT22;3168;51.684;6.954;2023-09-07T08:40:46;22.70;1.00
6270;DHT22;3168;51.684;6.954;2023-09-07T08:43:12;22.70;1.00
6270;DHT22;3168;51.684;6.954;2023-09-07T08:45:41;22.70;1.00
6270;DHT22;3168;51.684;6.954;2023-09-07T08:48:05;22.90;1.00
6270;DHT22;3168;51.684;6.954;2023-09-07T08:50:31;23.00;1.00
6270;DHT22;3168;51.684;6.954;2023-09-07T08:52:57;23.10;1.00
6270;DHT22;3168;51.684;6.954;2023-09-07T08:55:22;23.20;1.00
6270;DHT22;3168;51.684;6.954;2023-09-07T08:57:48;23.30;1.00
6270;DHT22;3168;51.684;6.954;2023-09-07T09:00:14;23.50;1.00
6270;DHT22;3168;51.684;6.954;2023-09-07T09:02:40;23.60;1.00
6270;DHT22;3168;51.684;6.954;2023-09-07T09:05:08;23.70;1.00
6270;DHT22;3168;51.684;6.954;2023-09-07T09:07:33;23.70;1.00
6270;DHT22;3168;51.684;6.954;2023-09-07T09:10:04;23.80;1.00
6270;DHT22;3168;51.684;6.954;2023-09-07T09:12:29;23.80;1.00
6270;DHT22;3168;51.684;6.954;2023-09-07T09:14:56;23.90;1.00
6270;DHT22;3168;51.684;6.954;2023-09-07T09:17:24;24.00;1.00
6270;DHT22;3168;51.684;6.954;2023-09-07T09:19:47;24.10;1.00
6270;DHT22;3168;51.684;6.954;2023-09-07T09:22:13;24.20;1.00
6270;DHT22;3168;51.684;6.954;2023-09-07T09:24:39;24.40;1.00
6270;DHT22;3168;51.684;6.954;2023-09-07T09:27:05;24.50;1.00
6270;DHT22;3168;51.684;6.954;2023-09-07T09:29:33;24.50;1.00
6270;DHT22;3168;51.684;6.954;2023-09-07T09:31:59;24.50;1.00
6270;DHT22;3168;51.684;6.954;2023-09-07T09:34:24;24.60;1.00
6270;DHT22;3168;51.684;6.954;2023-09-07T09:36:50;24.80;1.00
6270;DHT22;3168;51.684;6.954;2023-09-07T09:39:21;24.90;1.00
6270;DHT22;3168;51.684;6.954;2023-09-07T09:41:46;24.90;1.00
6270;DHT22;3168;51.684;6.954;2023-09-07T09:44:12;25.00;1.00
6270;DHT22;3168;51.684;6.954;2023-09-07T09:46:38;25.00;1.00
6270;DHT22;3168;51.684;6.954;2023-09-07T09:49:04;25.20;1.00
6270;DHT22;3168;51.684;6.954;2023-09-07T09:51:30;25.20;1.00
6270;DHT22;3168;51.684;6.954;2023-09-07T09:53:55;25.40;1.00
6270;DHT22;3168;51.684;6.954;2023-09-07T09:56:21;25.50;1.00
6270;DHT22;3168;51.684;6.954;2023-09-07T09:58:47;25.60;1.00
6270;DHT22;3168;51.684;6.954;2023-09-07T10:01:14;25.90;1.00
6270;DHT22;3168;51.684;6.954;2023-09-07T10:03:42;26.10;1.00
6270;DHT22;3168;51.684;6.954;2023-09-07T10:06:09;26.00;1.00
6270;DHT22;3168;51.684;6.954;2023-09-07T10:08:35;26.10;1.00
6270;DHT22;3168;51.684;6.954;2023-09-07T10:11:06;26.10;1.00
6270;DHT22;3168;51.684;6.954;2023-09-07T10:13:29;26.10;1.00
6270;DHT22;3168;51.684;6.954;2023-09-07T10:16:01;26.10;1.00
6270;DHT22;3168;51.684;6.954;2023-09-07T10:18:32;26.40;1.00
6270;DHT22;3168;51.684;6.954;2023-09-07T10:20:55;26.40;1.00
6270;DHT22;3168;51.684;6.954;2023-09-07T10:23:21;26.70;1.00
6270;DHT22;3168;51.684;6.954;2023-09-07T10:25:48;26.90;1.00
6270;DHT22;3168;51.684;6.954;2023-09-07T10:28:21;26.90;1.00
6270;DHT22;3168;51.684;6.954;2023-09-07T10:30:57;26.70;1.00
6270;DHT22;3168;51.684;6.954;2023-09-07T10:33:23;26.70;1.00
6270;DHT22;3168;51.684;6.954;2023-09-07T10:35:49;26.70;1.00
6270;DHT22;3168;51.684;6.954;2023-09-07T10:38:15;26.80;1.00
6270;DHT22;3168;51.684;6.954;2023-09-07T10:40:43;26.90;1.00
6270;DHT22;3168;51.684;6.954;2023-09-07T10:43:07;27.00;1.00
6270;DHT22;3168;51.684;6.954;2023-09-07T10:45:33;27.20;1.00
6270;DHT22;3168;51.684;6.954;2023-09-07T10:47:59;27.20;1.00
6270;DHT22;3168;51.684;6.954;2023-09-07T10:50:25;27.40;1.00
6270;DHT22;3168;51.684;6.954;2023-09-07T10:52:51;27.50;1.00
6270;DHT22;3168;51.684;6.954;2023-09-07T10:55:17;27.50;1.00
6270;DHT22;3168;51.684;6.954;2023-09-07T10:57:44;27.70;1.00
6270;DHT22;3168;51.684;6.954;2023-09-07T11:00:11;27.70;1.00
6270;DHT22;3168;51.684;6.954;2023-09-07T11:02:38;27.70;1.00
6270;DHT22;3168;51.684;6.954;2023-09-07T11:05:04;27.80;1.00
6270;DHT22;3168;51.684;6.954;2023-09-07T11:07:30;27.80;1.00
6270;DHT22;3168;51.684;6.954;2023-09-07T11:09:56;27.90;1.00
6270;DHT22;3168;51.684;6.954;2023-09-07T11:12:22;27.90;1.00
6270;DHT22;3168;51.684;6.954;2023-09-07T11:14:48;27.90;1.00
6270;DHT22;3168;51.684;6.954;2023-09-07T11:17:14;27.90;1.00
6270;DHT22;3168;51.684;6.954;2023-09-07T11:19:40;28.00;1.00
6270;DHT22;3168;51.684;6.954;2023-09-07T11:22:09;28.20;1.00
6270;DHT22;3168;51.684;6.954;2023-09-07T11:24:32;28.10;1.00
6270;DHT22;3168;51.684;6.954;2023-09-07T11:26:58;28.10;1.00
6270;DHT22;3168;51.684;6.954;2023-09-07T11:29:24;28.10;1.00
6270;DHT22;3168;51.684;6.954;2023-09-07T11:31:50;28.10;1.00
6270;DHT22;3168;51.684;6.954;2023-09-07T11:34:16;28.10;1.00
6270;DHT22;3168;51.684;6.954;2023-09-07T11:36:43;28.20;1.00
6270;DHT22;3168;51.684;6.954;2023-09-07T11:39:09;28.20;1.00
6270;DHT22;3168;51.684;6.954;2023-09-07T11:41:39;28.10;1.00
6270;DHT22;3168;51.684;6.954;2023-09-07T11:44:04;28.10;1.00
6270;DHT22;3168;51.684;6.954;2023-09-07T11:46:30;28.30;1.00
6270;DHT22;3168;51.684;6.954;2023-09-07T11:48:56;28.50;1.00
6270;DHT22;3168;51.684;6.954;2023-09-07T11:51:22;28.40;1.00
6270;DHT22;3168;51.684;6.954;2023-09-07T11:53:48;28.60;1.00
6270;DHT22;3168;51.684;6.954;2023-09-07T11:56:14;28.60;1.00
6270;DHT22;3168;51.684;6.954;2023-09-07T11:58:40;28.60;1.00
6270;DHT22;3168;51.684;6.954;2023-09-07T12:01:06;28.60;1.00
6270;DHT22;3168;51.684;6.954;2023-09-07T12:03:32;28.60;1.00
6270;DHT22;3168;51.684;6.954;2023-09-07T12:05:58;28.60;1.00
6270;DHT22;3168;51.684;6.954;2023-09-07T12:08:24;28.70;1.00
6270;DHT22;3168;51.684;6.954;2023-09-07T12:10:50;28.80;1.00
6270;DHT22;3168;51.684;6.954;2023-09-07T12:13:16;28.80;1.00
6270;DHT22;3168;51.684;6.954;2023-09-07T12:15:42;28.80;1.00
6270;DHT22;3168;51.684;6.954;2023-09-07T12:18:09;28.90;1.00
6270;DHT22;3168;51.684;6.954;2023-09-07T12:20:36;28.80;1.00
6270;DHT22;3168;51.684;6.954;2023-09-07T12:23:02;28.80;1.00
6270;DHT22;3168;51.684;6.954;2023-09-07T12:25:28;28.90;1.00
6270;DHT22;3168;51.684;6.954;2023-09-07T12:27:54;28.90;1.00
6270;DHT22;3168;51.684;6.954;2023-09-07T12:30:20;29.10;1.00
6270;DHT22;3168;51.684;6.954;2023-09-07T12:32:46;29.20;1.00
6270;DHT22;3168;51.684;6.954;2023-09-07T12:35:19;29.20;1.00
6270;DHT22;3168;51.684;6.954;2023-09-07T12:37:45;29.20;1.00
6270;DHT22;3168;51.684;6.954;2023-09-07T12:40:12;29.30;1.00
6270;DHT22;3168;51.684;6.954;2023-09-07T12:42:39;29.20;1.00
6270;DHT22;3168;51.684;6.954;2023-09-07T12:45:06;29.20;1.00
6270;DHT22;3168;51.684;6.954;2023-09-07T12:47:32;29.20;1.00
6270;DHT22;3168;51.684;6.954;2023-09-07T12:49:57;29.20;1.00
6270;DHT22;3168;51.684;6.954;2023-09-07T12:52:23;29.30;1.00
6270;DHT22;3168;51.684;6.954;2023-09-07T12:54:49;29.40;1.00
6270;DHT22;3168;51.684;6.954;2023-09-07T12:57:15;29.40;1.00
6270;DHT22;3168;51.684;6.954;2023-09-07T12:59:41;29.30;1.00
6270;DHT22;3168;51.684;6.954;2023-09-07T13:02:07;29.30;1.00
6270;DHT22;3168;51.684;6.954;2023-09-07T13:04:33;29.50;1.00
6270;DHT22;3168;51.684;6.954;2023-09-07T13:07:00;29.50;1.00
6270;DHT22;3168;51.684;6.954;2023-09-07T13:09:26;29.50;1.00
6270;DHT22;3168;51.684;6.954;2023-09-07T13:11:52;29.50;1.00
6270;DHT22;3168;51.684;6.954;2023-09-07T13:14:18;29.50;1.00
6270;DHT22;3168;51.684;6.954;2023-09-07T13:16:44;29.80;1.00
6270;DHT22;3168;51.684;6.954;2023-09-07T13:19:10;29.80;1.00
6270;DHT22;3168;51.684;6.954;2023-09-07T13:21:36;29.90;1.00
6270;DHT22;3168;51.684;6.954;2023-09-07T13:24:02;29.90;1.00
6270;DHT22;3168;51.684;6.954;2023-09-07T13:26:28;29.90;1.00
6270;DHT22;3168;51.684;6.954;2023-09-07T13:28:54;29.90;1.00
6270;DHT22;3168;51.684;6.954;2023-09-07T13:31:20;29.90;1.00
6270;DHT22;3168;51.684;6.954;2023-09-07T13:33:46;30.00;1.00
6270;DHT22;3168;51.684;6.954;2023-09-07T13:36:12;30.00;1.00
6270;DHT22;3168;51.684;6.954;2023-09-07T13:38:38;30.10;1.00
6270;DHT22;3168;51.684;6.954;2023-09-07T13:41:04;30.10;1.00
6270;DHT22;3168;51.684;6.954;2023-09-07T13:43:31;30.10;1.00
6270;DHT22;3168;51.684;6.954;2023-09-07T13:45:57;30.10;1.00
6270;DHT22;3168;51.684;6.954;2023-09-07T13:48:23;30.20;1.00
6270;DHT22;3168;51.684;6.954;2023-09-07T13:50:49;30.20;1.00
6270;DHT22;3168;51.684;6.954;2023-09-07T13:53:15;30.30;1.00
6270;DHT22;3168;51.684;6.954;2023-09-07T13:55:41;30.30;1.00
6270;DHT22;3168;51.684;6.954;2023-09-07T13:58:07;30.20;1.00
6270;DHT22;3168;51.684;6.954;2023-09-07T14:00:33;30.30;1.00
6270;DHT22;3168;51.684;6.954;2023-09-07T14:02:59;30.10;1.00
6270;DHT22;3168;51.684;6.954;2023-09-07T14:05:25;30.00;1.00
6270;DHT22;3168;51.684;6.954;2023-09-07T14:07:51;30.20;1.00
6270;DHT22;3168;51.684;6.954;2023-09-07T14:10:17;30.20;1.00
6270;DHT22;3168;51.684;6.954;2023-09-07T14:12:43;30.20;1.00
6270;DHT22;3168;51.684;6.954;2023-09-07T14:15:10;30.30;1.00
6270;DHT22;3168;51.684;6.954;2023-09-07T14:17:36;30.30;1.00
6270;DHT22;3168;51.684;6.954;2023-09-07T14:20:02;30.20;1.00
6270;DHT22;3168;51.684;6.954;2023-09-07T14:22:28;30.30;1.00
6270;DHT22;3168;51.684;6.954;2023-09-07T14:24:54;30.40;1.00
6270;DHT22;3168;51.684;6.954;2023-09-07T14:27:20;30.40;1.00
6270;DHT22;3168;51.684;6.954;2023-09-07T14:29:45;30.40;1.00
6270;DHT22;3168;51.684;6.954;2023-09-07T14:32:11;30.60;1.00
6270;DHT22;3168;51.684;6.954;2023-09-07T14:34:37;30.80;1.00
6270;DHT22;3168;51.684;6.954;2023-09-07T14:37:03;31.10;1.00
6270;DHT22;3168;51.684;6.954;2023-09-07T14:39:29;31.80;1.00
6270;DHT22;3168;51.684;6.954;2023-09-07T14:41:56;32.00;1.00
6270;DHT22;3168;51.684;6.954;2023-09-07T14:44:22;32.00;1.00
6270;DHT22;3168;51.684;6.954;2023-09-07T14:46:48;31.60;1.00
6270;DHT22;3168;51.684;6.954;2023-09-07T14:49:14;31.50;1.00
6270;DHT22;3168;51.684;6.954;2023-09-07T14:51:40;31.60;1.00
6270;DHT22;3168;51.684;6.954;2023-09-07T14:54:06;32.70;1.00
6270;DHT22;3168;51.684;6.954;2023-09-07T14:56:32;32.30;1.00
6270;DHT22;3168;51.684;6.954;2023-09-07T14:58:58;32.70;1.00
6270;DHT22;3168;51.684;6.954;2023-09-07T15:01:24;32.50;1.00
6270;DHT22;3168;51.684;6.954;2023-09-07T15:03:50;32.50;1.00
6270;DHT22;3168;51.684;6.954;2023-09-07T15:06:16;33.20;1.00
6270;DHT22;3168;51.684;6.954;2023-09-07T15:08:42;32.90;1.00
6270;DHT22;3168;51.684;6.954;2023-09-07T15:11:08;33.10;1.00
6270;DHT22;3168;51.684;6.954;2023-09-07T15:13:34;33.10;1.00
6270;DHT22;3168;51.684;6.954;2023-09-07T15:16:01;33.30;1.00
6270;DHT22;3168;51.684;6.954;2023-09-07T15:18:27;33.40;1.00
6270;DHT22;3168;51.684;6.954;2023-09-07T15:20:53;33.80;1.00
6270;DHT22;3168;51.684;6.954;2023-09-07T15:23:19;33.90;1.00
6270;DHT22;3168;51.684;6.954;2023-09-07T15:25:45;34.30;1.00
6270;DHT22;3168;51.684;6.954;2023-09-07T15:28:11;33.70;1.00
6270;DHT22;3168;51.684;6.954;2023-09-07T15:30:37;33.20;1.00
6270;DHT22;3168;51.684;6.954;2023-09-07T15:33:03;33.40;1.00
6270;DHT22;3168;51.684;6.954;2023-09-07T15:35:29;33.60;1.00
6270;DHT22;3168;51.684;6.954;2023-09-07T15:37:55;34.10;1.00
6270;DHT22;3168;51.684;6.954;2023-09-07T15:40:21;34.70;1.00
6270;DHT22;3168;51.684;6.954;2023-09-07T15:42:47;33.80;1.00
6270;DHT22;3168;51.684;6.954;2023-09-07T15:45:13;32.90;1.00
6270;DHT22;3168;51.684;6.954;2023-09-07T15:47:39;32.00;1.00
6270;DHT22;3168;51.684;6.954;2023-09-07T15:50:05;31.60;1.00
6270;DHT22;3168;51.684;6.954;2023-09-07T15:52:31;30.80;1.00
6270;DHT22;3168;51.684;6.954;2023-09-07T15:54:58;30.50;1.00
6270;DHT22;3168;51.684;6.954;2023-09-07T15:57:24;30.50;1.00
6270;DHT22;3168;51.684;6.954;2023-09-07T15:59:50;30.10;1.00
6270;DHT22;3168;51.684;6.954;2023-09-07T16:02:16;29.90;1.00
6270;DHT22;3168;51.684;6.954;2023-09-07T16:04:42;29.80;1.00
6270;DHT22;3168;51.684;6.954;2023-09-07T16:07:08;29.50;1.00
6270;DHT22;3168;51.684;6.954;2023-09-07T16:09:34;29.50;1.00